Time;durP1;ratioP1;P1;durP2;ratioP2;P2;SDS_P1;SDS_P2;PMS_P1;PMS_P2;Temp;Humidity;BMP_temperature;BMP_pressure;BME280_temperature;BME280_humidity;BME280_pressure;Samples;Min_cycle;Max_cycle;Signal;HPM_P1;HPM_P2
2021/07/29 00:00:57;;;;;;;5.68;4.85;;;18.30;99.90;;;;;;5075787;28;20288;-62
2021/07/29 00:03:25;;;;;;;5.10;4.60;;;18.40;99.90;;;;;;5075539;28;20220;-64
2021/07/29 00:05:54;;;;;;;8.07;4.97;;;18.30;99.90;;;;;;5075711;28;20211;-63
2021/07/29 00:08:23;;;;;;;5.55;5.05;;;18.40;99.90;;;;;;5078250;28;20732;-63
2021/07/29 00:10:51;;;;;;;5.45;4.72;;;18.40;99.90;;;;;;5077997;28;20205;-64
2021/07/29 00:13:20;;;;;;;7.43;4.85;;;18.30;99.90;;;;;;5057961;28;20289;-63
2021/07/29 00:15:48;;;;;;;5.28;4.68;;;18.20;99.90;;;;;;5055752;28;20296;-64
2021/07/29 00:21:01;;;;;;;5.25;4.75;;;18.40;99.90;;;;;;5055929;28;20272;-62
2021/07/29 00:23:31;;;;;;;5.75;4.95;;;18.30;99.90;;;;;;5055571;28;20229;-64
2021/07/29 00:25:58;;;;;;;5.38;4.82;;;18.30;99.90;;;;;;5055121;28;20244;-62
2021/07/29 00:28:26;;;;;;;5.10;4.70;;;18.30;99.90;;;;;;5054253;28;20293;-63
2021/07/29 00:30:54;;;;;;;5.38;4.88;;;18.30;99.90;;;;;;5054801;28;20292;-63
2021/07/29 00:33:22;;;;;;;5.38;4.32;;;18.30;99.90;;;;;;5054887;28;20201;-62
2021/07/29 00:35:50;;;;;;;5.63;5.03;;;18.20;99.90;;;;;;5055341;28;20753;-62
2021/07/29 00:38:18;;;;;;;7.13;4.85;;;18.20;99.90;;;;;;5074845;28;20206;-63
2021/07/29 00:40:48;;;;;;;5.65;4.85;;;18.10;99.90;;;;;;5074384;28;20239;-63
2021/07/29 00:43:16;;;;;;;5.85;4.90;;;18.20;99.90;;;;;;5074313;28;20643;-63
2021/07/29 00:45:45;;;;;;;7.65;5.40;;;18.20;99.90;;;;;;5074460;28;20242;-62
2021/07/29 00:48:14;;;;;;;5.53;5.03;;;18.20;99.90;;;;;;5074280;28;20657;-62
2021/07/29 00:50:42;;;;;;;5.10;4.70;;;18.20;99.90;;;;;;5074191;28;20760;-63
2021/07/29 00:53:10;;;;;;;7.00;5.10;;;18.00;99.90;;;;;;5074302;28;20223;-62
2021/07/29 00:55:38;;;;;;;5.15;4.65;;;18.00;99.90;;;;;;5074022;28;20203;-62
2021/07/29 00:58:07;;;;;;;5.03;4.63;;;18.00;99.90;;;;;;5074227;28;20197;-63
2021/07/29 01:00:35;;;;;;;9.15;5.30;;;17.90;99.90;;;;;;5074109;28;20624;-63
2021/07/29 01:03:04;;;;;;;6.05;5.03;;;17.90;99.90;;;;;;5074259;28;20213;-64
2021/07/29 01:05:32;;;;;;;5.20;4.70;;;17.80;99.90;;;;;;5073811;28;20220;-62
2021/07/29 01:08:00;;;;;;;6.03;5.40;;;17.70;99.90;;;;;;5073961;28;20231;-62
2021/07/29 01:10:28;;;;;;;5.40;4.65;;;17.70;99.90;;;;;;5074130;28;20304;-62
2021/07/29 01:12:56;;;;;;;6.53;5.15;;;17.60;99.90;;;;;;5074010;28;20197;-63
2021/07/29 01:15:25;;;;;;;5.20;4.80;;;17.60;99.90;;;;;;5073738;28;20292;-63
2021/07/29 01:17:58;;;;;;;7.68;5.50;;;17.50;99.90;;;;;;5073964;28;20206;-63
2021/07/29 01:20:27;;;;;;;5.43;4.90;;;17.30;99.90;;;;;;5073886;28;20291;-63
2021/07/29 01:22:55;;;;;;;6.50;5.38;;;17.40;99.90;;;;;;5073457;28;20313;-63
2021/07/29 01:25:23;;;;;;;8.60;6.18;;;17.40;99.90;;;;;;5073389;28;20629;-63
2021/07/29 01:27:51;;;;;;;6.93;5.35;;;17.40;99.90;;;;;;5073666;28;20292;-63
2021/07/29 01:30:19;;;;;;;6.20;5.25;;;17.40;99.90;;;;;;5073364;28;20648;-63
2021/07/29 01:32:47;;;;;;;7.82;5.63;;;17.40;99.90;;;;;;5073432;28;20644;-64
2021/07/29 01:35:14;;;;;;;6.00;5.43;;;17.50;99.90;;;;;;5073530;28;20295;-63
2021/07/29 01:37:44;;;;;;;7.53;5.78;;;17.50;99.90;;;;;;5073094;28;20565;-63
2021/07/29 01:40:12;;;;;;;7.20;5.47;;;17.50;99.90;;;;;;5073217;28;20196;-62
2021/07/29 01:42:40;;;;;;;8.25;5.72;;;17.50;99.90;;;;;;5073298;28;20240;-62
2021/07/29 01:45:09;;;;;;;7.28;5.57;;;17.40;99.90;;;;;;5072808;28;20232;-63
2021/07/29 01:47:37;;;;;;;5.85;5.00;;;17.40;99.90;;;;;;5073273;28;20241;-62
2021/07/29 01:50:06;;;;;;;6.20;5.70;;;17.30;99.90;;;;;;5072746;28;20661;-64
2021/07/29 01:52:37;;;;;;;6.20;5.57;;;17.30;99.90;;;;;;5073292;28;20288;-61
2021/07/29 01:55:08;;;;;;;5.85;5.25;;;17.20;99.90;;;;;;5073017;28;20291;-62
2021/07/29 01:57:37;;;;;;;7.20;5.20;;;17.10;99.90;;;;;;5073186;28;20181;-62
2021/07/29 02:00:06;;;;;;;6.63;5.90;;;17.20;99.90;;;;;;5072852;28;20196;-62
2021/07/29 02:02:34;;;;;;;6.00;5.50;;;17.10;99.90;;;;;;5072671;28;20727;-62
2021/07/29 02:05:02;;;;;;;7.38;5.65;;;17.10;99.90;;;;;;5072927;28;20224;-61
2021/07/29 02:07:30;;;;;;;6.47;5.85;;;17.00;99.90;;;;;;5072993;28;20293;-63
2021/07/29 02:09:58;;;;;;;6.72;5.55;;;17.00;99.90;;;;;;5072750;28;20200;-63
2021/07/29 02:12:27;;;;;;;6.50;5.80;;;17.00;99.90;;;;;;5072869;28;20295;-62
2021/07/29 02:14:55;;;;;;;6.40;5.78;;;17.00;99.90;;;;;;5072396;28;20287;-63
2021/07/29 02:17:23;;;;;;;6.63;5.68;;;17.00;99.90;;;;;;5072747;28;20196;-61
2021/07/29 02:19:51;;;;;;;7.55;6.03;;;17.00;99.90;;;;;;5072614;28;20201;-62
2021/07/29 02:22:19;;;;;;;6.93;5.88;;;17.00;99.90;;;;;;5072700;28;20211;-63
2021/07/29 02:24:46;;;;;;;6.78;6.07;;;17.00;99.90;;;;;;5072335;28;20219;-62
2021/07/29 02:27:14;;;;;;;6.97;6.28;;;17.00;99.90;;;;;;5072551;28;20201;-63
2021/07/29 02:29:43;;;;;;;8.00;6.00;;;17.00;99.90;;;;;;5072402;28;20275;-62
2021/07/29 02:32:11;;;;;;;6.85;6.15;;;17.00;99.90;;;;;;5072515;28;20200;-63
2021/07/29 02:34:39;;;;;;;8.38;5.97;;;17.00;99.90;;;;;;5072542;28;20207;-62
2021/07/29 02:37:07;;;;;;;8.30;6.10;;;17.00;99.90;;;;;;5072359;28;20239;-62
2021/07/29 02:39:36;;;;;;;8.10;5.95;;;17.00;99.90;;;;;;5072498;28;20284;-62
2021/07/29 02:42:04;;;;;;;7.05;6.22;;;17.00;99.90;;;;;;5072272;28;20205;-62
2021/07/29 02:44:32;;;;;;;7.15;6.30;;;17.00;99.90;;;;;;5071769;28;20324;-63
2021/07/29 02:47:02;;;;;;;6.78;6.07;;;16.90;99.90;;;;;;5072426;28;20291;-62
2021/07/29 02:49:30;;;;;;;6.60;5.97;;;16.90;99.90;;;;;;5072327;28;20318;-62
2021/07/29 02:51:58;;;;;;;7.95;6.15;;;16.90;99.90;;;;;;5071907;28;20644;-62
2021/07/29 02:54:25;;;;;;;7.20;6.60;;;16.90;99.90;;;;;;5072232;28;20195;-63
2021/07/29 02:56:53;;;;;;;9.23;6.78;;;17.00;99.90;;;;;;5072202;28;20200;-63
2021/07/29 02:59:21;;;;;;;8.10;6.47;;;17.00;99.90;;;;;;5072121;28;20238;-63
2021/07/29 03:01:49;;;;;;;6.88;6.20;;;17.10;99.90;;;;;;5072186;28;20204;-63
2021/07/29 03:04:20;;;;;;;8.57;6.38;;;17.20;99.90;;;;;;5072164;28;20216;-62
2021/07/29 03:06:48;;;;;;;6.97;6.28;;;17.20;99.90;;;;;;5072209;28;20193;-62
2021/07/29 03:09:16;;;;;;;7.22;6.18;;;17.30;99.90;;;;;;5072248;28;20312;-63
2021/07/29 03:11:44;;;;;;;6.93;6.32;;;17.40;99.90;;;;;;5072086;28;20200;-63
2021/07/29 03:14:13;;;;;;;8.27;6.47;;;17.40;99.90;;;;;;5071918;28;20205;-61
2021/07/29 03:16:41;;;;;;;6.60;5.80;;;17.50;99.90;;;;;;5072306;28;20236;-64
2021/07/29 03:19:09;;;;;;;7.00;6.20;;;17.50;99.90;;;;;;5072088;28;20228;-62
2021/07/29 03:21:38;;;;;;;6.38;5.78;;;17.60;99.90;;;;;;5071627;28;20291;-64
2021/07/29 03:24:06;;;;;;;7.53;5.68;;;17.70;99.90;;;;;;5071682;28;20223;-62
2021/07/29 03:26:34;;;;;;;6.18;5.57;;;17.80;99.90;;;;;;5071825;28;20283;-62
2021/07/29 03:29:02;;;;;;;8.02;5.93;;;17.90;99.90;;;;;;5071824;28;20196;-63
2021/07/29 03:31:30;;;;;;;6.30;5.70;;;17.90;99.90;;;;;;5071884;28;20212;-61
2021/07/29 03:33:58;;;;;;;6.15;5.53;;;17.90;99.90;;;;;;5071839;28;20201;-63
2021/07/29 03:36:26;;;;;;;6.53;5.47;;;17.90;99.90;;;;;;5071957;28;20205;-63
2021/07/29 03:38:55;;;;;;;5.80;5.30;;;18.00;99.90;;;;;;5071952;28;20562;-62
2021/07/29 03:41:23;;;;;;;5.38;4.88;;;18.00;99.90;;;;;;5071857;28;20203;-64
2021/07/29 03:43:50;;;;;;;6.38;5.72;;;18.00;99.90;;;;;;5071406;28;20237;-63
2021/07/29 03:46:18;;;;;;;5.88;5.18;;;18.00;99.90;;;;;;5072016;28;20207;-63
2021/07/29 03:48:46;;;;;;;8.10;5.38;;;17.90;99.90;;;;;;5071815;28;20261;-63
2021/07/29 03:51:14;;;;;;;6.18;5.10;;;17.90;99.90;;;;;;5071806;28;20200;-63
2021/07/29 03:53:42;;;;;;;6.22;5.35;;;18.00;99.90;;;;;;5071801;28;20197;-62
2021/07/29 03:56:11;;;;;;;5.38;4.93;;;18.00;99.90;;;;;;5071638;28;20240;-62
2021/07/29 03:58:38;;;;;;;6.18;5.43;;;18.00;99.90;;;;;;5071546;28;20207;-62
2021/07/29 04:01:09;;;;;;;7.15;5.63;;;18.00;99.90;;;;;;5071300;28;20698;-62
2021/07/29 04:03:37;;;;;;;7.72;5.85;;;17.90;99.90;;;;;;5073291;28;20535;-62
2021/07/29 04:06:05;;;;;;;6.32;5.65;;;17.80;99.90;;;;;;5075302;28;20312;-62
2021/07/29 04:08:33;;;;;;;6.57;5.72;;;17.80;99.90;;;;;;5075254;28;20215;-64
2021/07/29 04:11:01;;;;;;;6.30;5.70;;;17.80;99.90;;;;;;5075024;28;20245;-63
2021/07/29 04:13:30;;;;;;;7.95;5.75;;;17.80;99.90;;;;;;5074921;28;20204;-63
2021/07/29 04:16:01;;;;;;;8.57;5.55;;;17.80;99.90;;;;;;5075207;28;20193;-63
2021/07/29 04:18:31;;;;;;;6.22;5.63;;;17.90;99.90;;;;;;5074832;28;20248;-63
2021/07/29 04:21:00;;;;;;;6.07;5.35;;;17.80;99.90;;;;;;5075252;28;20201;-62
2021/07/29 04:23:28;;;;;;;6.25;5.65;;;18.00;99.90;;;;;;5074927;28;20200;-63
2021/07/29 04:25:55;;;;;;;6.25;5.38;;;18.00;99.90;;;;;;5074455;28;20223;-62
2021/07/29 04:28:23;;;;;;;7.78;5.40;;;18.00;99.90;;;;;;5074689;28;20212;-63
2021/07/29 04:30:52;;;;;;;7.82;5.40;;;18.00;99.90;;;;;;5074685;28;20295;-61
2021/07/29 04:33:20;;;;;;;7.13;5.30;;;18.00;99.90;;;;;;5074710;28;20208;-61
2021/07/29 04:35:48;;;;;;;6.32;5.47;;;18.00;99.90;;;;;;5074459;28;20226;-62
2021/07/29 04:38:16;;;;;;;6.47;5.35;;;17.90;99.90;;;;;;5075004;28;20209;-63
2021/07/29 04:40:44;;;;;;;6.85;5.75;;;17.90;99.90;;;;;;5074902;28;20207;-63
2021/07/29 04:43:12;;;;;;;5.70;5.20;;;18.00;99.90;;;;;;5074923;28;20239;-63
2021/07/29 04:45:39;;;;;;;5.43;4.90;;;18.00;99.90;;;;;;5075104;28;20237;-63
2021/07/29 04:48:09;;;;;;;7.70;5.05;;;18.00;99.90;;;;;;5074724;28;20197;-62
2021/07/29 04:50:36;;;;;;;6.35;5.22;;;18.10;99.90;;;;;;5075007;28;20200;-62
2021/07/29 04:53:04;;;;;;;5.32;4.78;;;18.10;99.90;;;;;;5074548;28;20207;-63
2021/07/29 04:55:32;;;;;;;6.20;5.28;;;18.20;99.90;;;;;;5074735;28;20200;-62
2021/07/29 04:58:03;;;;;;;7.03;5.55;;;18.20;99.90;;;;;;5074915;28;20205;-63
2021/07/29 05:00:31;;;;;;;6.38;4.95;;;18.30;99.90;;;;;;5075547;28;20192;-62
2021/07/29 05:02:59;;;;;;;5.43;4.88;;;18.40;99.90;;;;;;5077164;28;20201;-62
2021/07/29 05:05:28;;;;;;;5.13;4.72;;;18.70;99.90;;;;;;5078375;28;20261;-62
2021/07/29 05:07:56;;;;;;;5.72;3.92;;;19.80;99.90;;;;;;5075320;28;20768;-62
2021/07/29 05:10:24;;;;;;;4.53;4.13;;;21.20;99.90;;;;;;5074285;28;20200;-63
2021/07/29 05:12:52;;;;;;;5.13;4.15;;;22.10;99.90;;;;;;5074691;28;20210;-63
2021/07/29 05:15:19;;;;;;;6.20;3.92;;;23.00;99.90;;;;;;5073712;28;20661;-63
2021/07/29 05:17:54;;;;;;;4.93;3.80;;;23.80;99.90;;;;;;5074550;28;20197;-64
2021/07/29 05:20:22;;;;;;;5.05;4.07;;;24.20;99.90;;;;;;5074460;28;20184;-63
2021/07/29 05:22:51;;;;;;;5.05;3.58;;;24.30;99.90;;;;;;5074124;28;20547;-64
2021/07/29 05:25:23;;;;;;;3.90;3.60;;;24.30;99.90;;;;;;5073880;28;20744;-63
2021/07/29 05:27:51;;;;;;;5.63;3.90;;;24.10;99.90;;;;;;5074359;28;20197;-63
2021/07/29 05:30:20;;;;;;;4.18;3.78;;;23.80;99.90;;;;;;5073823;28;20653;-63
2021/07/29 05:32:49;;;;;;;6.40;3.75;;;23.50;99.90;;;;;;5074208;28;20560;-62
2021/07/29 05:35:16;;;;;;;5.30;3.67;;;23.10;99.90;;;;;;5073997;28;20320;-64
2021/07/29 05:37:44;;;;;;;6.00;3.78;;;22.60;99.90;;;;;;5074040;28;20207;-62
2021/07/29 05:40:13;;;;;;;4.30;3.90;;;22.20;99.90;;;;;;5074054;28;20200;-62
2021/07/29 05:42:41;;;;;;;4.88;4.10;;;22.00;99.90;;;;;;5074051;28;20201;-63
2021/07/29 05:45:10;;;;;;;4.18;3.63;;;21.60;99.90;;;;;;5073264;28;20232;-63
2021/07/29 05:47:37;;;;;;;4.20;3.72;;;21.50;99.90;;;;;;5073940;28;20760;-63
2021/07/29 05:50:06;;;;;;;5.25;3.83;;;21.30;99.90;;;;;;5074043;28;20197;-65
2021/07/29 05:52:34;;;;;;;4.35;3.50;;;21.30;99.90;;;;;;5070205;28;20193;-64
2021/07/29 05:55:02;;;;;;;4.57;3.70;;;21.30;99.90;;;;;;5053436;28;20735;-62
2021/07/29 05:57:31;;;;;;;5.53;3.67;;;21.20;99.90;;;;;;5053640;28;20205;-62
2021/07/29 05:59:59;;;;;;;4.80;3.30;;;21.20;99.90;;;;;;5053594;28;20280;-63
2021/07/29 06:02:26;;;;;;;6.72;3.60;;;21.20;99.90;;;;;;5053731;28;20301;-64
2021/07/29 06:04:55;;;;;;;4.25;3.67;;;21.20;99.90;;;;;;5053660;28;20201;-63
2021/07/29 06:07:24;;;;;;;4.47;3.33;;;21.30;99.90;;;;;;5053611;28;20229;-63
2021/07/29 06:09:52;;;;;;;4.20;3.50;;;21.40;99.90;;;;;;5070490;28;20235;-62
2021/07/29 06:12:24;;;;;;;4.13;3.55;;;21.40;99.90;;;;;;5073399;28;20284;-63
2021/07/29 06:14:54;;;;;;;4.60;3.67;;;21.50;99.90;;;;;;5073454;28;20243;-63
2021/07/29 06:17:25;;;;;;;3.60;3.30;;;21.60;99.90;;;;;;5073488;28;20283;-63
2021/07/29 06:19:54;;;;;;;3.20;2.95;;;21.60;99.90;;;;;;5073187;28;20223;-61
2021/07/29 06:22:22;;;;;;;4.63;3.25;;;21.70;99.90;;;;;;5073395;28;20209;-63
2021/07/29 06:24:50;;;;;;;3.83;3.42;;;21.70;99.90;;;;;;5072920;28;20640;-62
2021/07/29 06:27:20;;;;;;;5.18;3.17;;;21.80;99.90;;;;;;5072194;28;20220;-62
2021/07/29 06:29:48;;;;;;;4.72;2.80;;;21.70;99.90;;;;;;5072923;28;20197;-63
2021/07/29 06:32:17;;;;;;;3.85;3.30;;;21.50;99.90;;;;;;5073329;28;20208;-63
2021/07/29 06:34:45;;;;;;;6.65;3.20;;;21.70;99.90;;;;;;5073302;28;20196;-63
2021/07/29 06:37:12;;;;;;;3.85;3.20;;;21.80;99.90;;;;;;5072853;28;20214;-62
2021/07/29 06:39:41;;;;;;;3.20;2.85;;;21.90;99.90;;;;;;5072722;28;20204;-63
2021/07/29 06:42:09;;;;;;;3.58;2.92;;;22.10;99.90;;;;;;5072958;28;20287;-64
2021/07/29 06:44:39;;;;;;;3.30;2.80;;;22.30;99.90;;;;;;5072578;28;20224;-64
2021/07/29 06:47:07;;;;;;;4.40;2.58;;;22.40;99.90;;;;;;5073050;28;20296;-63
2021/07/29 06:49:36;;;;;;;3.63;2.80;;;22.40;99.90;;;;;;5072617;28;20803;-63
2021/07/29 06:52:04;;;;;;;4.50;3.00;;;22.50;99.90;;;;;;5072977;28;20211;-61
2021/07/29 06:54:32;;;;;;;3.28;2.97;;;22.70;99.90;;;;;;5072708;28;20247;-64
2021/07/29 06:57:00;;;;;;;3.40;3.10;;;23.00;99.90;;;;;;5072799;28;20203;-63
2021/07/29 06:59:28;;;;;;;4.13;3.05;;;23.20;99.90;;;;;;5072705;28;20299;-63
2021/07/29 07:01:56;;;;;;;3.45;3.10;;;23.30;99.90;;;;;;5072366;28;20200;-62
2021/07/29 07:04:24;;;;;;;3.90;3.03;;;23.40;99.90;;;;;;5072648;28;20207;-64
2021/07/29 07:06:53;;;;;;;3.45;3.15;;;23.10;99.90;;;;;;5072424;28;20225;-63
2021/07/29 07:09:21;;;;;;;5.03;3.05;;;23.10;99.90;;;;;;5072652;28;20252;-62
2021/07/29 07:11:49;;;;;;;3.80;3.50;;;23.00;99.90;;;;;;5071915;28;20285;-63
2021/07/29 07:14:17;;;;;;;3.40;3.03;;;22.90;99.90;;;;;;5071644;28;20656;-62
2021/07/29 07:16:45;;;;;;;3.45;3.05;;;22.80;99.90;;;;;;5071964;28;20280;-63
2021/07/29 07:19:13;;;;;;;5.75;3.35;;;22.70;99.90;;;;;;5071823;28;20235;-63
2021/07/29 07:21:41;;;;;;;3.03;2.78;;;22.70;99.90;;;;;;5071734;28;20200;-61
2021/07/29 07:24:10;;;;;;;3.63;3.33;;;22.60;99.90;;;;;;5071683;28;20296;-62
2021/07/29 07:26:38;;;;;;;3.53;3.20;;;22.50;99.90;;;;;;5071596;28;20315;-62
2021/07/29 07:29:06;;;;;;;3.95;3.05;;;22.50;99.90;;;;;;5071874;28;20639;-62
2021/07/29 07:31:33;;;;;;;4.93;3.03;;;22.30;99.90;;;;;;5072002;28;20204;-66
2021/07/29 07:34:02;;;;;;;3.80;3.28;;;22.30;99.90;;;;;;5071850;28;20200;-63
2021/07/29 07:36:29;;;;;;;4.00;3.50;;;22.40;99.90;;;;;;5071746;28;20192;-64
2021/07/29 07:38:57;;;;;;;3.42;3.10;;;22.30;99.90;;;;;;5075722;28;20311;-64
2021/07/29 07:41:26;;;;;;;3.60;3.30;;;22.30;99.90;;;;;;5075574;28;20200;-64
2021/07/29 07:43:54;;;;;;;3.47;3.00;;;22.50;99.90;;;;;;5074784;28;20599;-62
2021/07/29 07:46:22;;;;;;;3.78;3.30;;;22.70;99.90;;;;;;5075177;28;20567;-62
2021/07/29 07:48:50;;;;;;;5.47;3.35;;;22.80;99.90;;;;;;5075507;28;20200;-62
2021/07/29 07:51:18;;;;;;;3.45;3.15;;;22.90;99.90;;;;;;5075438;28;20292;-63
2021/07/29 07:53:46;;;;;;;3.85;3.35;;;22.90;99.90;;;;;;5075032;28;20200;-62
2021/07/29 07:56:13;;;;;;;5.10;3.20;;;22.70;99.90;;;;;;5075131;28;20211;-63
2021/07/29 07:58:43;;;;;;;6.68;3.53;;;22.60;99.90;;;;;;5074764;28;20240;-63
2021/07/29 08:01:10;;;;;;;4.50;3.25;;;22.60;99.90;;;;;;5074708;28;20712;-64
2021/07/29 08:03:39;;;;;;;5.13;3.20;;;22.60;99.90;;;;;;5074848;28;20197;-63
2021/07/29 08:06:07;;;;;;;3.53;3.08;;;22.60;99.90;;;;;;5075137;28;20201;-63
2021/07/29 08:08:34;;;;;;;3.45;2.90;;;22.60;99.90;;;;;;5074801;28;20205;-62
2021/07/29 08:11:03;;;;;;;4.75;3.15;;;22.70;99.90;;;;;;5074725;28;20196;-63
2021/07/29 08:13:31;;;;;;;4.68;3.28;;;22.90;99.90;;;;;;5074781;28;20207;-62
2021/07/29 08:16:00;;;;;;;5.07;2.85;;;22.90;99.90;;;;;;5074861;28;20220;-62
2021/07/29 08:18:28;;;;;;;4.97;3.00;;;22.80;99.90;;;;;;5074984;28;20254;-62
2021/07/29 08:20:56;;;;;;;3.63;3.25;;;22.90;99.90;;;;;;5074892;28;20204;-63
2021/07/29 08:23:24;;;;;;;3.53;3.10;;;22.80;99.90;;;;;;5074516;28;20296;-63
2021/07/29 08:25:52;;;;;;;3.70;2.92;;;22.70;99.90;;;;;;5074823;28;20297;-63
2021/07/29 08:28:20;;;;;;;3.30;3.00;;;22.80;99.90;;;;;;5074698;28;20220;-62
2021/07/29 08:30:48;;;;;;;4.10;2.90;;;22.90;99.90;;;;;;5074789;28;20234;-62
2021/07/29 08:33:17;;;;;;;5.32;3.10;;;23.10;99.90;;;;;;5074702;28;20207;-62
2021/07/29 08:35:45;;;;;;;6.68;3.17;;;23.00;99.90;;;;;;5074496;28;20197;-63
2021/07/29 08:38:12;;;;;;;5.53;3.10;;;22.80;99.90;;;;;;5074358;28;20743;-63
2021/07/29 08:40:41;;;;;;;10.20;3.00;;;22.90;99.90;;;;;;5074567;28;20196;-64
2021/07/29 08:43:09;;;;;;;5.40;2.90;;;23.00;99.90;;;;;;5074117;28;20327;-63
2021/07/29 08:45:42;;;;;;;5.30;2.92;;;23.20;99.90;;;;;;5074401;28;20271;-62
2021/07/29 08:48:11;;;;;;;3.05;2.63;;;23.20;99.90;;;;;;5073700;28;20296;-63
2021/07/29 08:50:40;;;;;;;4.18;2.80;;;23.20;99.90;;;;;;5073740;28;20644;-62
2021/07/29 08:53:08;;;;;;;6.13;2.95;;;23.00;99.90;;;;;;5074353;28;20599;-62
2021/07/29 08:55:37;;;;;;;4.03;3.05;;;22.90;99.90;;;;;;5074000;28;20291;-63
2021/07/29 08:58:05;;;;;;;3.78;3.35;;;22.90;99.90;;;;;;5074112;28;20291;-63
2021/07/29 09:00:33;;;;;;;6.25;3.13;;;22.80;99.90;;;;;;5074128;28;20192;-62
2021/07/29 09:03:20;;;;;;;3.75;2.97;;;22.80;99.90;;;;;;5074252;28;20250;-62
2021/07/29 09:06:01;;;;;;;3.42;2.85;;;22.90;99.90;;;;;;5073840;28;20234;-63
2021/07/29 09:08:30;;;;;;;5.97;3.03;;;23.00;99.90;;;;;;5073752;28;20319;-62
2021/07/29 09:10:58;;;;;;;4.95;2.72;;;23.20;99.90;;;;;;5073618;28;20300;-62
2021/07/29 09:13:25;;;;;;;4.10;2.90;;;23.40;99.90;;;;;;5073814;28;20291;-62
2021/07/29 09:16:09;;;;;;;3.63;2.78;;;23.70;99.90;;;;;;5073927;28;20204;-63
2021/07/29 09:18:39;;;;;;;3.65;2.85;;;24.00;99.90;;;;;;5073725;28;20211;-63
2021/07/29 09:21:14;;;;;;;8.45;3.65;;;24.30;99.90;;;;;;5073793;28;20196;-64
2021/07/29 09:23:42;;;;;;;4.53;2.50;;;24.30;99.90;;;;;;5073423;28;20584;-63
2021/07/29 09:26:10;;;;;;;4.72;2.50;;;23.90;99.90;;;;;;5073521;28;20204;-62
2021/07/29 09:28:39;;;;;;;2.80;2.30;;;23.70;99.90;;;;;;5073357;28;20303;-63
2021/07/29 09:31:18;;;;;;;4.25;2.60;;;23.50;99.90;;;;;;5073439;28;20197;-62
2021/07/29 09:33:57;;;;;;;5.30;2.70;;;23.50;99.90;;;;;;5073232;28;20204;-63
2021/07/29 09:36:28;;;;;;;4.55;2.03;;;23.30;99.90;;;;;;5073405;28;20197;-63
2021/07/29 09:39:17;;;;;;;3.80;2.40;;;23.20;99.90;;;;;;5073457;28;20234;-63
2021/07/29 09:41:45;;;;;;;2.80;2.40;;;23.10;99.90;;;;;;5073042;28;20189;-64
2021/07/29 09:44:14;;;;;;;4.00;2.50;;;23.10;99.90;;;;;;5072919;28;20233;-64
2021/07/29 09:46:42;;;;;;;3.17;2.40;;;23.30;99.90;;;;;;5072988;28;20295;-63
2021/07/29 09:49:11;;;;;;;3.05;2.75;;;23.30;99.90;;;;;;5073051;28;20310;-62
2021/07/29 09:51:41;;;;;;;4.57;2.78;;;23.40;99.90;;;;;;5073078;28;20744;-63
2021/07/29 09:54:09;;;;;;;5.55;2.30;;;23.60;99.90;;;;;;5073072;28;20555;-62
2021/07/29 09:56:37;;;;;;;3.55;2.33;;;23.80;99.90;;;;;;5074385;28;20279;-63
2021/07/29 09:59:15;;;;;;;3.22;2.70;;;23.80;99.90;;;;;;5077572;28;20248;-62
2021/07/29 10:01:43;;;;;;;3.20;2.63;;;23.90;99.90;;;;;;5076839;28;20302;-63
2021/07/29 10:04:13;;;;;;;4.07;2.70;;;24.00;99.90;;;;;;5074034;28;20205;-61
2021/07/29 10:06:43;;;;;;;3.65;2.78;;;23.70;99.90;;;;;;5072838;28;20296;-63
2021/07/29 10:09:13;;;;;;;3.20;2.90;;;23.30;99.90;;;;;;5072789;28;20312;-63
2021/07/29 10:11:45;;;;;;;3.10;2.75;;;23.10;99.90;;;;;;5072820;28;20295;-62
2021/07/29 10:14:13;;;;;;;4.28;2.78;;;23.20;99.90;;;;;;5072382;28;20181;-62
2021/07/29 10:16:48;;;;;;;3.55;2.53;;;23.20;99.90;;;;;;5072672;28;20664;-63
2021/07/29 10:19:16;;;;;;;3.33;2.65;;;23.30;99.90;;;;;;5072589;28;20222;-62
2021/07/29 10:21:46;;;;;;;3.78;2.33;;;23.50;99.90;;;;;;5072538;28;20228;-63
2021/07/29 10:24:14;;;;;;;3.85;2.70;;;23.60;99.90;;;;;;5072456;28;20209;-63
2021/07/29 10:27:10;;;;;;;8.20;3.03;;;23.60;99.90;;;;;;5072470;28;20235;-62
2021/07/29 10:29:38;;;;;;;3.92;2.83;;;23.70;99.90;;;;;;5066575;28;20313;-62
2021/07/29 10:32:10;;;;;;;3.08;2.60;;;23.60;99.90;;;;;;5072363;28;20201;-63
2021/07/29 10:34:39;;;;;;;3.53;3.03;;;23.70;99.90;;;;;;5072372;28;20318;-64
2021/07/29 10:37:09;;;;;;;3.80;2.95;;;24.00;99.90;;;;;;5072422;28;20204;-63
2021/07/29 10:39:58;;;;;;;6.28;2.80;;;24.20;99.90;;;;;;5072057;28;20192;-63
2021/07/29 10:42:27;;;;;;;3.30;3.00;;;24.20;99.90;;;;;;5072328;28;20316;-63
2021/07/29 10:44:55;;;;;;;5.78;3.17;;;24.20;99.90;;;;;;5071822;28;20263;-62
2021/07/29 10:47:44;;;;;;;4.38;3.10;;;24.10;99.90;;;;;;5071960;28;20653;-63
2021/07/29 10:50:15;;;;;;;5.63;3.72;;;24.10;99.90;;;;;;5072083;28;20189;-63
2021/07/29 10:52:53;;;;;;;7.18;3.28;;;24.40;99.90;;;;;;5072040;28;20291;-63
2021/07/29 10:55:22;;;;;;;3.90;2.60;;;24.10;99.90;;;;;;5072235;28;20254;-62
2021/07/29 10:58:09;;;;;;;3.78;3.33;;;24.00;99.90;;;;;;5071700;28;20205;-62
2021/07/29 11:00:37;;;;;;;5.38;3.08;;;24.10;99.90;;;;;;5071964;28;20207;-62
2021/07/29 11:03:10;;;;;;;5.30;2.67;;;24.00;99.90;;;;;;5071583;28;20211;-61
2021/07/29 11:05:43;;;;;;;3.78;2.60;;;24.00;99.90;;;;;;5071996;28;20180;-63
2021/07/29 11:08:13;;;;;;;4.25;2.70;;;24.00;99.90;;;;;;5071705;28;20691;-63
2021/07/29 11:10:41;;;;;;;4.38;2.60;;;24.00;99.90;;;;;;5071920;28;20291;-63
2021/07/29 11:13:13;;;;;;;3.15;2.38;;;24.00;99.90;;;;;;5071703;28;20208;-63
2021/07/29 11:15:41;;;;;;;6.78;2.78;;;24.00;99.90;;;;;;5071823;28;20181;-62
2021/07/29 11:18:17;;;;;;;4.78;2.70;;;24.10;99.90;;;;;;5071957;28;20571;-62
2021/07/29 11:20:45;;;;;;;4.63;2.72;;;24.30;99.90;;;;;;5071925;28;20187;-62
2021/07/29 11:23:17;;;;;;;3.90;2.40;;;24.30;99.90;;;;;;5071899;28;20287;-63
2021/07/29 11:26:01;;;;;;;3.15;2.42;;;24.40;99.90;;;;;;5071832;28;20292;-63
2021/07/29 11:28:29;;;;;;;4.22;2.80;;;24.50;99.90;;;;;;5071676;28;20247;-62
2021/07/29 11:31:17;;;;;;;3.55;2.30;;;24.60;99.90;;;;;;5071815;28;20197;-63
2021/07/29 11:33:52;;;;;;;3.55;2.47;;;24.70;99.90;;;;;;5071705;28;20292;-62
2021/07/29 11:36:20;;;;;;;5.93;2.40;;;24.90;99.90;;;;;;5071426;28;20726;-61
2021/07/29 11:39:01;;;;;;;4.82;2.80;;;24.70;99.90;;;;;;5071438;28;20296;-63
2021/07/29 11:41:29;;;;;;;3.58;2.50;;;24.90;99.90;;;;;;5071687;28;20608;-62
2021/07/29 11:44:00;;;;;;;4.10;2.60;;;24.90;99.90;;;;;;5070938;28;20240;-62
2021/07/29 11:46:28;;;;;;;3.95;2.35;;;24.90;99.90;;;;;;5071681;28;20268;-62
2021/07/29 11:49:07;;;;;;;3.33;2.40;;;24.90;99.90;;;;;;5071139;28;20612;-62
2021/07/29 11:51:35;;;;;;;4.40;2.30;;;25.10;99.90;;;;;;5071690;28;20284;-61
2021/07/29 11:54:04;;;;;;;2.95;2.28;;;25.20;99.90;;;;;;5071631;28;20283;-63
2021/07/29 11:56:33;;;;;;;4.15;2.30;;;25.00;99.90;;;;;;5071541;28;20295;-62
2021/07/29 11:59:04;;;;;;;4.20;2.40;;;24.80;99.90;;;;;;5071516;28;20231;-62
2021/07/29 12:01:32;;;;;;;3.55;2.50;;;24.60;99.90;;;;;;5071712;28;20219;-62
2021/07/29 12:04:00;;;;;;;4.50;2.80;;;24.40;99.90;;;;;;5071201;28;20201;-62
2021/07/29 12:06:29;;;;;;;4.18;2.40;;;24.40;99.90;;;;;;5071630;28;20197;-62
2021/07/29 12:08:58;;;;;;;3.28;2.22;;;24.40;99.90;;;;;;5071506;28;20225;-63
2021/07/29 12:11:31;;;;;;;4.68;2.40;;;24.50;99.90;;;;;;5071064;28;20210;-61
2021/07/29 12:13:59;;;;;;;5.22;2.38;;;24.60;99.90;;;;;;5071439;28;20200;-63
2021/07/29 12:16:44;;;;;;;2.95;2.20;;;24.80;99.90;;;;;;5071319;28;20334;-62
2021/07/29 12:19:13;;;;;;;5.10;2.42;;;24.90;99.90;;;;;;5071332;28;20181;-62
2021/07/29 12:21:41;;;;;;;3.70;2.38;;;25.10;99.90;;;;;;5071178;28;20635;-62
2021/07/29 12:24:09;;;;;;;3.10;2.25;;;25.30;99.90;;;;;;5072273;28;20196;-62
2021/07/29 12:26:38;;;;;;;2.30;2.10;;;25.40;99.90;;;;;;5074767;28;20200;-63
2021/07/29 12:29:07;;;;;;;4.03;2.47;;;25.60;99.90;;;;;;5074722;28;20341;-62
2021/07/29 12:31:43;;;;;;;3.78;2.17;;;25.50;99.90;;;;;;5074846;28;20246;-63
2021/07/29 12:34:11;;;;;;;5.32;2.70;;;25.50;99.90;;;;;;5074265;28;20219;-62
2021/07/29 12:36:44;;;;;;;2.50;2.25;;;25.60;99.90;;;;;;5074506;28;20201;-62
2021/07/29 12:39:13;;;;;;;3.00;2.10;;;25.70;99.90;;;;;;5074538;28;20193;-62
2021/07/29 12:41:44;;;;;;;3.08;2.47;;;25.80;99.90;;;;;;5074401;28;20207;-62
2021/07/29 12:44:15;;;;;;;3.42;2.30;;;25.70;99.90;;;;;;5074082;28;20872;-63
2021/07/29 12:46:44;;;;;;;4.47;2.40;;;25.60;99.90;;;;;;5074625;28;20242;-62
2021/07/29 12:49:13;;;;;;;2.92;2.45;;;25.60;99.90;;;;;;5074325;28;20312;-63
2021/07/29 12:51:43;;;;;;;2.53;2.10;;;25.40;99.90;;;;;;5074456;28;20204;-62
2021/07/29 12:54:13;;;;;;;3.55;2.42;;;25.20;99.90;;;;;;5074303;28;20189;-63
2021/07/29 12:56:42;;;;;;;5.57;2.55;;;25.20;99.90;;;;;;5074116;28;20244;-63
2021/07/29 12:59:11;;;;;;;2.40;2.20;;;25.40;99.90;;;;;;5074114;28;20197;-62
2021/07/29 13:01:40;;;;;;;3.22;2.47;;;25.50;99.90;;;;;;5074157;28;20232;-62